DAL2260 KLAS-KAUS
Flight info
| Callsign | DAL2260 |
|---|---|
| Flight time | 2h 15m |
| Altitude | 37000 |
| Route | NIITZ4 SSKEE CNX UCOKA LAIKS4 |
| Aircraft | A320/M-SDE3FGHIRWY/LB1 |
Departure
| Time | 2026-05-06 20:14 |
|---|---|
| Airport | Harry Reid International Airport (KLAS) |
Arrival
| Time | 2026-05-06 22:29 |
|---|---|
| Airport | Austin Bergstrom International Airport (KAUS) |
| Time | Latitude | Longitude | Altitude | Speed | Heading |
|---|---|---|---|---|---|
| 2026-05-06 19:50 | 36.07998 | -115.14032 | 2094 ft | 0 kts | 60° |
| 2026-05-06 20:05 | 36.07993 | -115.14042 | 2103 ft | 4 kts | 60° |
| 2026-05-06 20:05 | 36.07979 | -115.14071 | 2094 ft | 4 kts | 60° |
| 2026-05-06 20:06 | 36.07968 | -115.14095 | 2094 ft | 4 kts | 65° |
| 2026-05-06 20:06 | 36.07961 | -115.14126 | 2094 ft | 4 kts | 95° |
| 2026-05-06 20:06 | 36.07970 | -115.14153 | 2094 ft | 4 kts | 149° |
| 2026-05-06 20:06 | 36.07994 | -115.14159 | 2095 ft | 4 kts | 180° |
| 2026-05-06 20:07 | 36.08000 | -115.14159 | 2095 ft | 0 kts | 180° |
| 2026-05-06 20:09 | 36.07990 | -115.14158 | 2095 ft | 5 kts | 173° |
| 2026-05-06 20:09 | 36.07941 | -115.14116 | 2094 ft | 13 kts | 135° |
| 2026-05-06 20:09 | 36.07871 | -115.14030 | 2093 ft | 15 kts | 135° |
| 2026-05-06 20:10 | 36.07827 | -115.13919 | 2093 ft | 15 kts | 92° |
| 2026-05-06 20:10 | 36.07827 | -115.13780 | 2093 ft | 17 kts | 90° |
| 2026-05-06 20:10 | 36.07828 | -115.13631 | 2092 ft | 18 kts | 90° |
| 2026-05-06 20:10 | 36.07828 | -115.13468 | 2091 ft | 20 kts | 90° |
| 2026-05-06 20:11 | 36.07828 | -115.13287 | 2088 ft | 22 kts | 90° |
| 2026-05-06 20:11 | 36.07828 | -115.13083 | 2081 ft | 26 kts | 90° |
| 2026-05-06 20:11 | 36.07828 | -115.12850 | 2071 ft | 27 kts | 90° |
| 2026-05-06 20:11 | 36.07828 | -115.12645 | 2063 ft | 25 kts | 90° |
| 2026-05-06 20:12 | 36.07829 | -115.12433 | 2057 ft | 23 kts | 90° |
| 2026-05-06 20:12 | 36.07812 | -115.12248 | 2052 ft | 17 kts | 131° |
| 2026-05-06 20:12 | 36.07707 | -115.12236 | 2050 ft | 15 kts | 180° |
| 2026-05-06 20:12 | 36.07642 | -115.12293 | 2051 ft | 11 kts | 269° |
| 2026-05-06 20:13 | 36.07642 | -115.12375 | 2053 ft | 9 kts | 270° |
| 2026-05-06 20:13 | 36.07643 | -115.12654 | 2065 ft | 66 kts | 270° |
| 2026-05-06 20:13 | 36.07642 | -115.13481 | 2089 ft | 124 kts | 270° |
| 2026-05-06 20:13 | 36.07641 | -115.14768 | 2103 ft | 173 kts | 270° |
| 2026-05-06 20:14 | 36.07634 | -115.16325 | 2540 ft | 182 kts | 270° |
| 2026-05-06 20:14 | 36.07633 | -115.17903 | 3233 ft | 185 kts | 270° |
| 2026-05-06 20:14 | 36.07632 | -115.19502 | 3817 ft | 189 kts | 271° |
| 2026-05-06 20:14 | 36.07582 | -115.21214 | 4060 ft | 210 kts | 260° |
| 2026-05-06 20:15 | 36.07273 | -115.23075 | 4277 ft | 234 kts | 260° |
| 2026-05-06 20:15 | 36.06770 | -115.25059 | 4701 ft | 250 kts | 239° |
| 2026-05-06 20:15 | 36.05511 | -115.26586 | 5175 ft | 266 kts | 209° |
| 2026-05-06 20:15 | 36.03771 | -115.27540 | 5700 ft | 279 kts | 201° |
| 2026-05-06 20:16 | 36.01895 | -115.28268 | 6397 ft | 287 kts | 188° |
| 2026-05-06 20:16 | 35.99892 | -115.28239 | 7181 ft | 290 kts | 169° |
| 2026-05-06 20:16 | 35.97966 | -115.27497 | 7943 ft | 293 kts | 153° |
| 2026-05-06 20:16 | 35.96265 | -115.26108 | 8691 ft | 295 kts | 137° |
| 2026-05-06 20:17 | 35.94711 | -115.24418 | 9464 ft | 300 kts | 136° |
| 2026-05-06 20:17 | 35.93139 | -115.22700 | 10196 ft | 304 kts | 136° |
| 2026-05-06 20:17 | 35.91592 | -115.20867 | 10673 ft | 317 kts | 127° |
| 2026-05-06 20:17 | 35.90326 | -115.18589 | 10865 ft | 337 kts | 117° |
| 2026-05-06 20:18 | 35.89103 | -115.16023 | 11151 ft | 354 kts | 117° |
| 2026-05-06 20:18 | 35.87891 | -115.13353 | 11777 ft | 358 kts | 111° |
| 2026-05-06 20:18 | 35.87089 | -115.10464 | 12472 ft | 356 kts | 99° |
| 2026-05-06 20:18 | 35.86808 | -115.07447 | 13181 ft | 354 kts | 86° |
| 2026-05-06 20:19 | 35.86951 | -115.04420 | 13931 ft | 354 kts | 83° |
| 2026-05-06 20:19 | 35.87126 | -115.01382 | 14553 ft | 357 kts | 83° |
| 2026-05-06 20:19 | 35.87297 | -114.98313 | 15098 ft | 361 kts | 83° |
| 2026-05-06 20:19 | 35.87464 | -114.95213 | 15669 ft | 364 kts | 83° |
| 2026-05-06 20:20 | 35.87630 | -114.92082 | 16245 ft | 367 kts | 83° |
| 2026-05-06 20:20 | 35.87800 | -114.88928 | 16814 ft | 371 kts | 83° |
| 2026-05-06 20:20 | 35.87973 | -114.85735 | 17380 ft | 374 kts | 83° |
| 2026-05-06 20:20 | 35.88148 | -114.82519 | 17948 ft | 378 kts | 83° |
| 2026-05-06 20:21 | 35.88323 | -114.79271 | 18490 ft | 381 kts | 83° |
| 2026-05-06 20:21 | 35.88498 | -114.75999 | 18982 ft | 384 kts | 83° |
| 2026-05-06 20:21 | 35.88672 | -114.72701 | 19484 ft | 387 kts | 83° |
| 2026-05-06 20:21 | 35.88846 | -114.69374 | 20003 ft | 389 kts | 83° |
| 2026-05-06 20:22 | 35.89018 | -114.66030 | 20513 ft | 392 kts | 83° |
| 2026-05-06 20:22 | 35.89191 | -114.62658 | 20983 ft | 394 kts | 83° |
| 2026-05-06 20:22 | 35.89366 | -114.59276 | 21444 ft | 397 kts | 83° |
| 2026-05-06 20:22 | 35.89542 | -114.55864 | 21903 ft | 400 kts | 83° |
| 2026-05-06 20:23 | 35.89715 | -114.52433 | 22361 ft | 402 kts | 84° |
| 2026-05-06 20:23 | 35.89805 | -114.48972 | 22805 ft | 406 kts | 86° |
| 2026-05-06 20:23 | 35.89805 | -114.45468 | 23238 ft | 409 kts | 87° |
| 2026-05-06 20:23 | 35.89755 | -114.41947 | 23640 ft | 412 kts | 88° |
| 2026-05-06 20:24 | 35.89689 | -114.38409 | 24008 ft | 414 kts | 88° |
| 2026-05-06 20:24 | 35.89630 | -114.34896 | 24356 ft | 416 kts | 87° |
| 2026-05-06 20:24 | 35.89586 | -114.31319 | 24706 ft | 418 kts | 87° |
| 2026-05-06 20:24 | 35.89559 | -114.27730 | 25063 ft | 419 kts | 86° |
| 2026-05-06 20:25 | 35.89543 | -114.24130 | 25437 ft | 420 kts | 86° |
| 2026-05-06 20:25 | 35.89526 | -114.20517 | 25795 ft | 422 kts | 86° |
| 2026-05-06 20:25 | 35.89507 | -114.16894 | 26139 ft | 423 kts | 86° |
| 2026-05-06 20:25 | 35.89484 | -114.13255 | 26481 ft | 425 kts | 86° |
| 2026-05-06 20:26 | 35.89457 | -114.09613 | 26806 ft | 426 kts | 86° |
| 2026-05-06 20:26 | 35.89425 | -114.05954 | 27144 ft | 427 kts | 86° |
| 2026-05-06 20:26 | 35.89390 | -114.02278 | 27445 ft | 429 kts | 86° |
| 2026-05-06 20:26 | 35.89357 | -113.98591 | 27748 ft | 431 kts | 86° |
| 2026-05-06 20:27 | 35.89323 | -113.94893 | 28025 ft | 433 kts | 86° |
| 2026-05-06 20:27 | 35.89290 | -113.91178 | 28324 ft | 434 kts | 86° |
| 2026-05-06 20:27 | 35.89256 | -113.87446 | 28601 ft | 435 kts | 86° |
| 2026-05-06 20:27 | 35.89220 | -113.83757 | 28871 ft | 436 kts | 86° |
| 2026-05-06 20:28 | 35.89181 | -113.80013 | 29130 ft | 437 kts | 86° |
| 2026-05-06 20:28 | 35.89141 | -113.76263 | 29384 ft | 438 kts | 86° |
| 2026-05-06 20:28 | 35.89101 | -113.72496 | 29680 ft | 439 kts | 86° |
| 2026-05-06 20:28 | 35.89061 | -113.68738 | 30034 ft | 439 kts | 86° |
| 2026-05-06 20:29 | 35.89021 | -113.64983 | 30307 ft | 438 kts | 86° |
| 2026-05-06 20:29 | 35.88980 | -113.61228 | 30522 ft | 437 kts | 86° |
| 2026-05-06 20:29 | 35.88936 | -113.57494 | 30706 ft | 434 kts | 86° |
| 2026-05-06 20:29 | 35.88853 | -113.53767 | 30885 ft | 437 kts | 90° |
| 2026-05-06 20:30 | 35.88412 | -113.50041 | 31138 ft | 440 kts | 95° |
| 2026-05-06 20:30 | 35.87337 | -113.42617 | 31761 ft | 438 kts | 94° |
| 2026-05-06 20:30 | 35.86808 | -113.38918 | 32051 ft | 437 kts | 94° |
| 2026-05-06 20:31 | 35.86279 | -113.35227 | 32336 ft | 437 kts | 94° |
| 2026-05-06 20:31 | 35.85751 | -113.31550 | 32633 ft | 435 kts | 94° |
| 2026-05-06 20:31 | 35.85221 | -113.27879 | 32919 ft | 434 kts | 94° |
| 2026-05-06 20:31 | 35.84698 | -113.24276 | 33167 ft | 432 kts | 94° |
| 2026-05-06 20:32 | 35.84171 | -113.20640 | 33459 ft | 431 kts | 94° |
| 2026-05-06 20:32 | 35.83643 | -113.17005 | 33744 ft | 430 kts | 94° |
| 2026-05-06 20:32 | 35.83115 | -113.13388 | 34021 ft | 429 kts | 94° |
| 2026-05-06 20:32 | 35.82587 | -113.09775 | 34265 ft | 428 kts | 94° |
| 2026-05-06 20:33 | 35.82059 | -113.06156 | 34453 ft | 429 kts | 94° |
| 2026-05-06 20:33 | 35.81531 | -113.02535 | 34632 ft | 430 kts | 94° |
| 2026-05-06 20:33 | 35.80998 | -112.98911 | 34822 ft | 430 kts | 94° |
| 2026-05-06 20:33 | 35.80463 | -112.95289 | 35013 ft | 430 kts | 94° |
| 2026-05-06 20:34 | 35.79924 | -112.91661 | 35192 ft | 431 kts | 94° |
| 2026-05-06 20:34 | 35.79383 | -112.88030 | 35365 ft | 431 kts | 94° |
| 2026-05-06 20:34 | 35.78843 | -112.84397 | 35533 ft | 431 kts | 95° |
| 2026-05-06 20:34 | 35.78303 | -112.80760 | 35698 ft | 432 kts | 95° |
| 2026-05-06 20:35 | 35.77762 | -112.77123 | 35872 ft | 432 kts | 95° |
| 2026-05-06 20:35 | 35.77218 | -112.73484 | 35995 ft | 433 kts | 95° |
| 2026-05-06 20:35 | 35.76672 | -112.69835 | 36144 ft | 434 kts | 95° |
| 2026-05-06 20:35 | 35.76126 | -112.66179 | 36287 ft | 434 kts | 95° |
| 2026-05-06 20:36 | 35.75587 | -112.62568 | 36417 ft | 434 kts | 95° |
| 2026-05-06 20:36 | 35.75039 | -112.58914 | 36563 ft | 435 kts | 96° |
| 2026-05-06 20:36 | 35.74488 | -112.55252 | 36697 ft | 435 kts | 96° |
| 2026-05-06 20:36 | 35.73935 | -112.51586 | 36825 ft | 436 kts | 96° |
| 2026-05-06 20:37 | 35.73383 | -112.47921 | 36976 ft | 436 kts | 96° |
| 2026-05-06 20:37 | 35.72277 | -112.40538 | 37016 ft | 441 kts | 97° |
| 2026-05-06 20:38 | 35.71151 | -112.33104 | 37006 ft | 442 kts | 97° |
| 2026-05-06 20:38 | 35.70010 | -112.25662 | 37004 ft | 442 kts | 97° |
| 2026-05-06 20:39 | 35.68866 | -112.18224 | 37004 ft | 443 kts | 97° |
| 2026-05-06 20:39 | 35.67729 | -112.10832 | 37027 ft | 443 kts | 97° |
| 2026-05-06 20:40 | 35.66585 | -112.03367 | 36995 ft | 444 kts | 97° |
| 2026-05-06 20:40 | 35.65427 | -111.95902 | 36995 ft | 445 kts | 97° |
| 2026-05-06 20:41 | 35.64256 | -111.88426 | 36991 ft | 446 kts | 97° |
| 2026-05-06 20:41 | 35.63270 | -111.82213 | 36996 ft | 446 kts | 98° |
| 2026-05-06 20:42 | 35.61992 | -111.74741 | 36979 ft | 447 kts | 99° |
| 2026-05-06 20:42 | 35.60632 | -111.67259 | 36986 ft | 449 kts | 99° |
| 2026-05-06 20:43 | 35.59257 | -111.59768 | 36981 ft | 450 kts | 99° |
| 2026-05-06 20:43 | 35.57898 | -111.52265 | 36960 ft | 450 kts | 99° |
| 2026-05-06 20:44 | 35.56549 | -111.44744 | 36964 ft | 450 kts | 99° |
| 2026-05-06 20:44 | 35.55202 | -111.37276 | 36957 ft | 451 kts | 99° |
| 2026-05-06 20:45 | 35.53828 | -111.29762 | 36960 ft | 451 kts | 99° |
| 2026-05-06 20:45 | 35.52449 | -111.22239 | 36924 ft | 452 kts | 99° |
| 2026-05-06 20:46 | 35.51063 | -111.14696 | 36932 ft | 454 kts | 99° |
| 2026-05-06 20:46 | 35.49672 | -111.07133 | 36918 ft | 456 kts | 100° |
| 2026-05-06 20:47 | 35.48265 | -110.99530 | 36908 ft | 458 kts | 100° |
| 2026-05-06 20:47 | 35.46848 | -110.91911 | 36912 ft | 459 kts | 101° |
| 2026-05-06 20:48 | 35.45423 | -110.84274 | 36924 ft | 460 kts | 100° |
| 2026-05-06 20:48 | 35.43995 | -110.76626 | 36928 ft | 461 kts | 101° |
| 2026-05-06 20:49 | 35.42558 | -110.68952 | 36913 ft | 463 kts | 101° |
| 2026-05-06 20:49 | 35.41105 | -110.61262 | 36915 ft | 464 kts | 102° |
| 2026-05-06 20:50 | 35.39650 | -110.53593 | 36921 ft | 465 kts | 102° |
| 2026-05-06 20:50 | 35.38181 | -110.45865 | 36944 ft | 466 kts | 103° |
| 2026-05-06 20:51 | 35.36707 | -110.38111 | 36930 ft | 468 kts | 103° |
| 2026-05-06 20:51 | 35.35223 | -110.30328 | 36930 ft | 470 kts | 103° |
| 2026-05-06 20:52 | 35.33723 | -110.22523 | 36933 ft | 471 kts | 103° |
| 2026-05-06 20:52 | 35.32214 | -110.14707 | 36937 ft | 472 kts | 103° |
| 2026-05-06 20:53 | 35.30703 | -110.06882 | 36941 ft | 473 kts | 104° |
| 2026-05-06 20:53 | 35.29189 | -109.99039 | 36927 ft | 474 kts | 104° |
| 2026-05-06 20:54 | 35.27660 | -109.91176 | 36920 ft | 476 kts | 104° |
| 2026-05-06 20:54 | 35.26106 | -109.83288 | 36922 ft | 477 kts | 104° |
| 2026-05-06 20:55 | 35.24546 | -109.75375 | 36923 ft | 479 kts | 105° |
| 2026-05-06 20:55 | 35.22996 | -109.67488 | 36919 ft | 481 kts | 104° |
| 2026-05-06 20:56 | 35.21428 | -109.59515 | 36923 ft | 483 kts | 105° |
| 2026-05-06 20:56 | 35.19843 | -109.51530 | 36926 ft | 483 kts | 105° |
| 2026-05-06 20:57 | 35.18243 | -109.43534 | 36930 ft | 484 kts | 105° |
| 2026-05-06 20:57 | 35.16639 | -109.35529 | 36920 ft | 486 kts | 105° |
| 2026-05-06 20:58 | 35.15036 | -109.27495 | 36963 ft | 488 kts | 106° |
| 2026-05-06 20:58 | 35.13422 | -109.19420 | 37012 ft | 490 kts | 106° |
| 2026-05-06 20:59 | 35.11778 | -109.11340 | 37080 ft | 490 kts | 107° |
| 2026-05-06 20:59 | 35.10134 | -109.03297 | 37107 ft | 492 kts | 107° |
| 2026-05-06 21:00 | 35.08481 | -108.95174 | 37102 ft | 493 kts | 107° |
| 2026-05-06 21:00 | 35.06823 | -108.87047 | 37105 ft | 494 kts | 107° |
| 2026-05-06 21:01 | 35.05152 | -108.78903 | 37094 ft | 495 kts | 107° |
| 2026-05-06 21:01 | 35.04313 | -108.74830 | 36954 ft | 495 kts | 107° |
| 2026-05-06 21:01 | 35.03469 | -108.70749 | 36938 ft | 496 kts | 107° |
| 2026-05-06 21:02 | 35.01770 | -108.62547 | 36928 ft | 500 kts | 108° |
| 2026-05-06 21:02 | 35.00063 | -108.54308 | 36941 ft | 502 kts | 108° |
| 2026-05-06 21:03 | 34.98348 | -108.46055 | 36949 ft | 502 kts | 108° |
| 2026-05-06 21:03 | 34.96619 | -108.37798 | 36945 ft | 503 kts | 109° |
| 2026-05-06 21:04 | 34.94891 | -108.29574 | 36935 ft | 505 kts | 109° |
| 2026-05-06 21:04 | 34.93151 | -108.21273 | 36942 ft | 506 kts | 109° |
| 2026-05-06 21:05 | 34.91408 | -108.12959 | 36943 ft | 507 kts | 109° |
| 2026-05-06 21:05 | 34.89647 | -108.04647 | 36946 ft | 507 kts | 109° |
| 2026-05-06 21:06 | 34.87869 | -107.96337 | 36914 ft | 507 kts | 109° |
| 2026-05-06 21:06 | 34.86087 | -107.87996 | 36911 ft | 509 kts | 110° |
| 2026-05-06 21:07 | 34.84294 | -107.79646 | 36921 ft | 510 kts | 110° |
| 2026-05-06 21:07 | 34.82490 | -107.71273 | 36919 ft | 512 kts | 110° |
| 2026-05-06 21:08 | 34.80677 | -107.62890 | 36911 ft | 513 kts | 110° |
| 2026-05-06 21:08 | 34.78860 | -107.54485 | 36900 ft | 514 kts | 110° |
| 2026-05-06 21:09 | 34.77034 | -107.46066 | 36892 ft | 514 kts | 110° |
| 2026-05-06 21:09 | 34.75206 | -107.37703 | 36899 ft | 515 kts | 111° |
| 2026-05-06 21:10 | 34.73349 | -107.29272 | 36871 ft | 516 kts | 111° |
| 2026-05-06 21:10 | 34.71498 | -107.20827 | 36872 ft | 518 kts | 111° |
| 2026-05-06 21:11 | 34.69648 | -107.12373 | 36858 ft | 518 kts | 111° |
| 2026-05-06 21:11 | 34.67777 | -107.03922 | 36865 ft | 518 kts | 111° |
| 2026-05-06 21:12 | 34.65889 | -106.95445 | 36854 ft | 520 kts | 111° |
| 2026-05-06 21:12 | 34.63991 | -106.86956 | 37031 ft | 521 kts | 111° |
| 2026-05-06 21:13 | 34.62088 | -106.78458 | 37037 ft | 522 kts | 111° |
| 2026-05-06 21:13 | 34.60186 | -106.69999 | 37022 ft | 523 kts | 111° |
| 2026-05-06 21:14 | 34.58272 | -106.61476 | 36943 ft | 524 kts | 113° |
| 2026-05-06 21:14 | 34.56336 | -106.52924 | 36914 ft | 526 kts | 113° |
| 2026-05-06 21:15 | 34.54385 | -106.44354 | 36896 ft | 527 kts | 113° |
| 2026-05-06 21:15 | 34.52430 | -106.35778 | 36892 ft | 528 kts | 113° |
| 2026-05-06 21:16 | 34.50471 | -106.27198 | 36894 ft | 529 kts | 114° |
| 2026-05-06 21:16 | 34.48496 | -106.18591 | 36912 ft | 530 kts | 114° |
| 2026-05-06 21:17 | 34.46515 | -106.09980 | 36918 ft | 531 kts | 114° |
| 2026-05-06 21:17 | 34.44524 | -106.01360 | 36922 ft | 531 kts | 114° |
| 2026-05-06 21:18 | 34.42534 | -105.92728 | 36925 ft | 534 kts | 115° |
| 2026-05-06 21:18 | 34.40516 | -105.84094 | 36930 ft | 538 kts | 115° |
| 2026-05-06 21:19 | 34.38477 | -105.75381 | 36933 ft | 538 kts | 115° |
| 2026-05-06 21:19 | 34.36087 | -105.66894 | 36930 ft | 522 kts | 127° |
| 2026-05-06 21:19 | 34.34355 | -105.63101 | 36918 ft | 510 kts | 134° |
| 2026-05-06 21:20 | 34.32497 | -105.59451 | 36923 ft | 510 kts | 134° |
| 2026-05-06 21:20 | 34.28772 | -105.52135 | 36928 ft | 511 kts | 134° |
| 2026-05-06 21:21 | 34.25054 | -105.44808 | 36878 ft | 510 kts | 134° |
| 2026-05-06 21:21 | 34.21360 | -105.37520 | 36928 ft | 508 kts | 134° |
| 2026-05-06 21:22 | 34.17685 | -105.30296 | 36918 ft | 507 kts | 135° |
| 2026-05-06 21:22 | 34.13977 | -105.23059 | 36918 ft | 507 kts | 135° |
| 2026-05-06 21:23 | 34.10268 | -105.15814 | 36902 ft | 507 kts | 135° |
| 2026-05-06 21:23 | 34.06560 | -105.08563 | 36899 ft | 508 kts | 135° |
| 2026-05-06 21:24 | 34.02849 | -105.01326 | 36849 ft | 507 kts | 135° |
| 2026-05-06 21:24 | 33.99125 | -104.94096 | 36866 ft | 507 kts | 135° |
| 2026-05-06 21:25 | 33.95400 | -104.86879 | 36860 ft | 507 kts | 136° |
| 2026-05-06 21:25 | 33.91667 | -104.79662 | 36862 ft | 507 kts | 136° |
| 2026-05-06 21:26 | 33.87942 | -104.72449 | 36861 ft | 508 kts | 136° |
| 2026-05-06 21:26 | 33.84230 | -104.65290 | 36806 ft | 507 kts | 136° |
| 2026-05-06 21:27 | 33.80490 | -104.58101 | 36840 ft | 506 kts | 136° |
| 2026-05-06 21:27 | 33.76754 | -104.50929 | 36856 ft | 506 kts | 136° |
| 2026-05-06 21:28 | 33.73012 | -104.43771 | 36847 ft | 505 kts | 136° |
| 2026-05-06 21:28 | 33.69275 | -104.36626 | 36848 ft | 505 kts | 136° |
| 2026-05-06 21:29 | 33.65532 | -104.29488 | 36846 ft | 505 kts | 136° |
| 2026-05-06 21:29 | 33.61795 | -104.22364 | 36809 ft | 504 kts | 136° |
| 2026-05-06 21:30 | 33.58079 | -104.15288 | 36840 ft | 504 kts | 136° |
| 2026-05-06 21:30 | 33.54335 | -104.08168 | 36849 ft | 505 kts | 136° |
| 2026-05-06 21:31 | 33.50579 | -104.01061 | 36861 ft | 505 kts | 136° |
| 2026-05-06 21:31 | 33.46818 | -103.93956 | 36862 ft | 505 kts | 136° |
| 2026-05-06 21:32 | 33.43049 | -103.86854 | 36828 ft | 505 kts | 136° |
| 2026-05-06 21:32 | 33.38035 | -103.77423 | 36858 ft | 505 kts | 136° |
| 2026-05-06 21:33 | 33.33656 | -103.69184 | 36879 ft | 505 kts | 136° |
| 2026-05-06 21:33 | 33.30489 | -103.63248 | 36888 ft | 505 kts | 136° |
| 2026-05-06 21:34 | 33.26707 | -103.56183 | 36893 ft | 505 kts | 136° |
| 2026-05-06 21:34 | 33.22947 | -103.49159 | 36917 ft | 505 kts | 136° |
| 2026-05-06 21:35 | 33.19154 | -103.42096 | 36858 ft | 505 kts | 136° |
| 2026-05-06 21:35 | 33.15348 | -103.35032 | 36873 ft | 506 kts | 136° |
| 2026-05-06 21:36 | 33.11540 | -103.27969 | 36888 ft | 506 kts | 136° |
| 2026-05-06 21:36 | 33.07733 | -103.20901 | 36894 ft | 506 kts | 136° |
| 2026-05-06 21:37 | 33.03920 | -103.13847 | 36904 ft | 506 kts | 136° |
| 2026-05-06 21:37 | 33.00086 | -103.06786 | 36907 ft | 507 kts | 137° |
| 2026-05-06 21:38 | 32.96255 | -102.99732 | 36894 ft | 507 kts | 137° |
| 2026-05-06 21:38 | 32.92419 | -102.92676 | 36913 ft | 508 kts | 137° |
| 2026-05-06 21:39 | 32.88583 | -102.85624 | 36973 ft | 508 kts | 137° |
| 2026-05-06 21:39 | 32.84737 | -102.78577 | 37011 ft | 508 kts | 137° |
| 2026-05-06 21:40 | 32.80914 | -102.71585 | 37028 ft | 507 kts | 136° |
| 2026-05-06 21:40 | 32.77064 | -102.64563 | 37067 ft | 507 kts | 136° |
| 2026-05-06 21:41 | 32.73213 | -102.57544 | 37076 ft | 507 kts | 136° |
| 2026-05-06 21:41 | 32.69365 | -102.50543 | 37062 ft | 506 kts | 137° |
| 2026-05-06 21:42 | 32.65504 | -102.43551 | 37039 ft | 506 kts | 137° |
| 2026-05-06 21:42 | 32.61649 | -102.36567 | 36989 ft | 505 kts | 136° |
| 2026-05-06 21:43 | 32.57801 | -102.29604 | 36986 ft | 504 kts | 137° |
| 2026-05-06 21:43 | 32.53955 | -102.22653 | 36926 ft | 501 kts | 136° |
| 2026-05-06 21:44 | 32.50131 | -102.15764 | 36957 ft | 500 kts | 136° |
| 2026-05-06 21:44 | 32.46323 | -102.08939 | 36965 ft | 500 kts | 136° |
| 2026-05-06 21:45 | 32.42467 | -102.02029 | 36984 ft | 500 kts | 137° |
| 2026-05-06 21:45 | 32.38660 | -101.95209 | 36963 ft | 500 kts | 137° |
| 2026-05-06 21:46 | 32.34823 | -101.88347 | 36958 ft | 500 kts | 137° |
| 2026-05-06 21:46 | 32.30979 | -101.81482 | 36929 ft | 499 kts | 136° |
| 2026-05-06 21:47 | 32.27143 | -101.74637 | 36977 ft | 499 kts | 137° |
| 2026-05-06 21:47 | 32.23299 | -101.67799 | 37009 ft | 499 kts | 137° |
| 2026-05-06 21:48 | 32.19474 | -101.61010 | 37032 ft | 500 kts | 137° |
| 2026-05-06 21:48 | 32.15624 | -101.54182 | 37028 ft | 500 kts | 137° |
| 2026-05-06 21:49 | 32.11768 | -101.47355 | 37023 ft | 500 kts | 137° |
| 2026-05-06 21:49 | 32.07911 | -101.40539 | 36965 ft | 499 kts | 137° |
| 2026-05-06 21:50 | 32.04039 | -101.33749 | 36966 ft | 499 kts | 137° |
| 2026-05-06 21:50 | 32.00171 | -101.26960 | 36944 ft | 499 kts | 137° |
| 2026-05-06 21:51 | 31.96312 | -101.20157 | 36933 ft | 499 kts | 137° |
| 2026-05-06 21:51 | 31.92445 | -101.13357 | 36942 ft | 499 kts | 137° |
| 2026-05-06 21:52 | 31.88593 | -101.06615 | 36945 ft | 499 kts | 137° |
| 2026-05-06 21:52 | 31.84718 | -100.99842 | 36912 ft | 499 kts | 137° |
| 2026-05-06 21:53 | 31.80836 | -100.93076 | 36935 ft | 499 kts | 137° |
| 2026-05-06 21:53 | 31.76951 | -100.86327 | 36950 ft | 498 kts | 137° |
| 2026-05-06 21:54 | 31.73066 | -100.79580 | 36955 ft | 499 kts | 137° |
| 2026-05-06 21:54 | 31.69178 | -100.72826 | 36958 ft | 499 kts | 137° |
| 2026-05-06 21:55 | 31.65291 | -100.66085 | 36969 ft | 499 kts | 137° |
| 2026-05-06 21:55 | 31.61421 | -100.59396 | 36949 ft | 498 kts | 137° |
| 2026-05-06 21:56 | 31.57517 | -100.52680 | 36959 ft | 499 kts | 137° |
| 2026-05-06 21:56 | 31.53609 | -100.45949 | 36977 ft | 499 kts | 137° |
| 2026-05-06 21:57 | 31.49705 | -100.39216 | 36993 ft | 500 kts | 137° |
| 2026-05-06 21:57 | 31.45791 | -100.32483 | 36999 ft | 499 kts | 137° |
| 2026-05-06 21:58 | 31.41866 | -100.25777 | 36986 ft | 499 kts | 137° |
| 2026-05-06 21:58 | 31.37942 | -100.19073 | 36936 ft | 499 kts | 136° |
| 2026-05-06 21:59 | 31.34016 | -100.12362 | 36954 ft | 500 kts | 136° |
| 2026-05-06 21:59 | 31.30441 | -100.05262 | 36971 ft | 518 kts | 126° |
| 2026-05-06 22:00 | 31.27439 | -99.97610 | 36984 ft | 518 kts | 126° |
| 2026-05-06 22:00 | 31.24412 | -99.89964 | 36987 ft | 518 kts | 126° |
| 2026-05-06 22:01 | 31.21378 | -99.82332 | 36989 ft | 518 kts | 126° |
| 2026-05-06 22:01 | 31.18338 | -99.74694 | 36985 ft | 519 kts | 126° |
| 2026-05-06 22:02 | 31.15312 | -99.67097 | 36748 ft | 520 kts | 125° |
| 2026-05-06 22:02 | 31.13791 | -99.63272 | 36496 ft | 519 kts | 125° |
| 2026-05-06 22:02 | 31.12276 | -99.59451 | 36253 ft | 519 kts | 125° |
| 2026-05-06 22:03 | 31.10759 | -99.55626 | 36003 ft | 519 kts | 125° |
| 2026-05-06 22:03 | 31.09219 | -99.51802 | 35769 ft | 524 kts | 126° |
| 2026-05-06 22:03 | 31.07665 | -99.47971 | 35527 ft | 521 kts | 125° |
| 2026-05-06 22:03 | 31.06117 | -99.44141 | 35132 ft | 525 kts | 125° |
| 2026-05-06 22:04 | 31.04546 | -99.40257 | 33994 ft | 534 kts | 125° |
| 2026-05-06 22:04 | 31.02961 | -99.36324 | 32925 ft | 537 kts | 124° |
| 2026-05-06 22:04 | 31.01390 | -99.32396 | 32054 ft | 533 kts | 124° |
| 2026-05-06 22:04 | 30.99819 | -99.28465 | 31012 ft | 534 kts | 124° |
| 2026-05-06 22:05 | 30.98254 | -99.24557 | 30215 ft | 527 kts | 124° |
| 2026-05-06 22:05 | 30.96721 | -99.20731 | 28932 ft | 517 kts | 124° |
| 2026-05-06 22:05 | 30.95210 | -99.16984 | 28361 ft | 506 kts | 124° |
| 2026-05-06 22:05 | 30.93714 | -99.13288 | 27611 ft | 502 kts | 124° |
| 2026-05-06 22:06 | 30.92224 | -99.09630 | 26888 ft | 498 kts | 123° |
| 2026-05-06 22:06 | 30.90741 | -99.05999 | 26211 ft | 493 kts | 123° |
| 2026-05-06 22:06 | 30.89273 | -99.02402 | 25511 ft | 490 kts | 123° |
| 2026-05-06 22:06 | 30.87816 | -98.98828 | 24828 ft | 488 kts | 123° |
| 2026-05-06 22:07 | 30.86383 | -98.95310 | 24161 ft | 485 kts | 123° |
| 2026-05-06 22:07 | 30.84940 | -98.91766 | 23494 ft | 483 kts | 123° |
| 2026-05-06 22:07 | 30.83513 | -98.88251 | 22896 ft | 477 kts | 122° |
| 2026-05-06 22:07 | 30.82105 | -98.84782 | 22277 ft | 472 kts | 122° |
| 2026-05-06 22:08 | 30.80730 | -98.81380 | 22143 ft | 457 kts | 121° |
| 2026-05-06 22:08 | 30.79682 | -98.77916 | 21959 ft | 454 kts | 110° |
| 2026-05-06 22:08 | 30.79135 | -98.74314 | 21350 ft | 449 kts | 103° |
| 2026-05-06 22:08 | 30.78747 | -98.70737 | 20491 ft | 443 kts | 102° |
| 2026-05-06 22:09 | 30.78389 | -98.67207 | 19749 ft | 435 kts | 102° |
| 2026-05-06 22:09 | 30.78046 | -98.63717 | 19313 ft | 432 kts | 101° |
| 2026-05-06 22:09 | 30.77702 | -98.60245 | 18867 ft | 429 kts | 101° |
| 2026-05-06 22:09 | 30.77354 | -98.56822 | 18454 ft | 425 kts | 101° |
| 2026-05-06 22:10 | 30.77002 | -98.53435 | 17681 ft | 419 kts | 101° |
| 2026-05-06 22:10 | 30.76650 | -98.50103 | 17098 ft | 411 kts | 101° |
| 2026-05-06 22:10 | 30.76299 | -98.46816 | 16626 ft | 409 kts | 101° |
| 2026-05-06 22:10 | 30.75825 | -98.43623 | 16099 ft | 404 kts | 110° |
| 2026-05-06 22:11 | 30.74878 | -98.40599 | 15822 ft | 392 kts | 121° |
| 2026-05-06 22:11 | 30.73729 | -98.37727 | 15643 ft | 391 kts | 121° |
| 2026-05-06 22:11 | 30.72599 | -98.34862 | 15431 ft | 389 kts | 121° |
| 2026-05-06 22:11 | 30.71482 | -98.32003 | 15213 ft | 388 kts | 120° |
| 2026-05-06 22:12 | 30.70371 | -98.29156 | 14990 ft | 386 kts | 120° |
| 2026-05-06 22:12 | 30.69262 | -98.26328 | 14772 ft | 384 kts | 120° |
| 2026-05-06 22:12 | 30.68158 | -98.23529 | 14604 ft | 375 kts | 120° |
| 2026-05-06 22:12 | 30.67089 | -98.20816 | 14476 ft | 364 kts | 121° |
| 2026-05-06 22:13 | 30.66050 | -98.18183 | 14365 ft | 353 kts | 121° |
| 2026-05-06 22:13 | 30.65038 | -98.15629 | 14175 ft | 346 kts | 121° |
| 2026-05-06 22:13 | 30.64034 | -98.13106 | 13889 ft | 343 kts | 121° |
| 2026-05-06 22:13 | 30.63031 | -98.10592 | 13537 ft | 342 kts | 121° |
| 2026-05-06 22:14 | 30.62036 | -98.08093 | 13118 ft | 341 kts | 121° |
| 2026-05-06 22:14 | 30.61057 | -98.05638 | 12788 ft | 338 kts | 120° |
| 2026-05-06 22:14 | 30.60060 | -98.03133 | 12446 ft | 336 kts | 120° |
| 2026-05-06 22:14 | 30.59094 | -98.00700 | 12079 ft | 335 kts | 120° |
| 2026-05-06 22:15 | 30.58122 | -97.98258 | 11714 ft | 333 kts | 120° |
| 2026-05-06 22:15 | 30.57122 | -97.95851 | 11367 ft | 328 kts | 126° |
| 2026-05-06 22:15 | 30.55763 | -97.93779 | 11018 ft | 318 kts | 141° |
| 2026-05-06 22:15 | 30.54068 | -97.92211 | 10803 ft | 306 kts | 154° |
| 2026-05-06 22:16 | 30.52198 | -97.91089 | 10611 ft | 302 kts | 160° |
| 2026-05-06 22:16 | 30.50314 | -97.90024 | 10415 ft | 301 kts | 159° |
| 2026-05-06 22:16 | 30.48434 | -97.88957 | 10225 ft | 300 kts | 159° |
| 2026-05-06 22:16 | 30.46556 | -97.87893 | 10028 ft | 300 kts | 159° |
| 2026-05-06 22:17 | 30.44671 | -97.86828 | 9614 ft | 303 kts | 159° |
| 2026-05-06 22:17 | 30.42780 | -97.85760 | 9225 ft | 301 kts | 159° |
| 2026-05-06 22:17 | 30.40903 | -97.84699 | 8777 ft | 301 kts | 158° |
| 2026-05-06 22:17 | 30.39036 | -97.83644 | 8402 ft | 298 kts | 158° |
| 2026-05-06 22:18 | 30.37176 | -97.82594 | 8042 ft | 295 kts | 158° |
| 2026-05-06 22:18 | 30.35327 | -97.81550 | 7623 ft | 295 kts | 158° |
| 2026-05-06 22:18 | 30.33488 | -97.80513 | 7188 ft | 295 kts | 158° |
| 2026-05-06 22:18 | 30.31665 | -97.79483 | 6973 ft | 286 kts | 158° |
| 2026-05-06 22:19 | 30.29914 | -97.78489 | 6858 ft | 275 kts | 158° |
| 2026-05-06 22:19 | 30.28209 | -97.77575 | 6746 ft | 264 kts | 165° |
| 2026-05-06 22:19 | 30.26450 | -97.77160 | 6634 ft | 254 kts | 181° |
| 2026-05-06 22:19 | 30.24738 | -97.77116 | 6307 ft | 247 kts | 183° |
| 2026-05-06 22:20 | 30.23031 | -97.77077 | 5836 ft | 243 kts | 183° |
| 2026-05-06 22:20 | 30.21329 | -97.77033 | 5583 ft | 240 kts | 183° |
| 2026-05-06 22:20 | 30.19673 | -97.76985 | 5320 ft | 236 kts | 182° |
| 2026-05-06 22:20 | 30.18071 | -97.76939 | 5090 ft | 230 kts | 183° |
| 2026-05-06 22:21 | 30.16476 | -97.76887 | 4828 ft | 232 kts | 181° |
| 2026-05-06 22:21 | 30.14864 | -97.76822 | 4459 ft | 232 kts | 179° |
| 2026-05-06 22:21 | 30.13247 | -97.76752 | 4049 ft | 234 kts | 179° |
| 2026-05-06 22:21 | 30.11605 | -97.76680 | 3605 ft | 238 kts | 179° |
| 2026-05-06 22:22 | 30.09933 | -97.76606 | 3176 ft | 241 kts | 179° |
| 2026-05-06 22:22 | 30.08827 | -97.76558 | 3026 ft | 237 kts | 179° |
| 2026-05-06 22:22 | 30.07189 | -97.76487 | 2997 ft | 236 kts | 179° |
| 2026-05-06 22:22 | 30.05548 | -97.76418 | 2993 ft | 235 kts | 178° |
| 2026-05-06 22:23 | 30.03926 | -97.76352 | 2978 ft | 233 kts | 178° |
| 2026-05-06 22:23 | 30.02301 | -97.76277 | 2982 ft | 235 kts | 175° |
| 2026-05-06 22:23 | 30.00767 | -97.75684 | 2984 ft | 234 kts | 143° |
| 2026-05-06 22:23 | 29.99791 | -97.74307 | 2980 ft | 216 kts | 107° |
| 2026-05-06 22:24 | 29.99464 | -97.72660 | 2982 ft | 209 kts | 95° |
| 2026-05-06 22:24 | 29.99479 | -97.71031 | 2981 ft | 200 kts | 67° |
| 2026-05-06 22:24 | 30.00250 | -97.69746 | 2985 ft | 195 kts | 39° |
| 2026-05-06 22:24 | 30.01314 | -97.68783 | 2994 ft | 193 kts | 30° |
| 2026-05-06 22:25 | 30.02493 | -97.68276 | 3020 ft | 171 kts | 6° |
| 2026-05-06 22:25 | 30.03623 | -97.68118 | 2991 ft | 155 kts | 5° |
| 2026-05-06 22:25 | 30.04641 | -97.67892 | 2985 ft | 146 kts | 11° |
| 2026-05-06 22:25 | 30.05610 | -97.67593 | 2934 ft | 145 kts | 5° |
| 2026-05-06 22:26 | 30.06612 | -97.67580 | 2738 ft | 144 kts | 357° |
| 2026-05-06 22:26 | 30.07617 | -97.67590 | 2542 ft | 144 kts | 356° |
| 2026-05-06 22:26 | 30.08588 | -97.67608 | 2364 ft | 135 kts | 358° |
| 2026-05-06 22:26 | 30.09528 | -97.67629 | 2188 ft | 134 kts | 359° |
| 2026-05-06 22:27 | 30.10455 | -97.67651 | 2029 ft | 131 kts | 359° |
| 2026-05-06 22:27 | 30.11368 | -97.67672 | 1830 ft | 131 kts | 359° |
| 2026-05-06 22:27 | 30.12272 | -97.67690 | 1713 ft | 130 kts | 359° |
| 2026-05-06 22:27 | 30.13140 | -97.67717 | 1532 ft | 130 kts | 1° |
| 2026-05-06 22:28 | 30.14044 | -97.67731 | 1332 ft | 130 kts | 1° |
| 2026-05-06 22:28 | 30.14947 | -97.67757 | 1175 ft | 129 kts | 359° |
| 2026-05-06 22:28 | 30.15846 | -97.67777 | 1000 ft | 130 kts | 358° |
| 2026-05-06 22:28 | 30.16752 | -97.67800 | 803 ft | 130 kts | 357° |
| 2026-05-06 22:29 | 30.17659 | -97.67838 | 633 ft | 129 kts | 359° |
| 2026-05-06 22:29 | 30.18542 | -97.67862 | 539 ft | 120 kts | 358° |
| 2026-05-06 22:29 | 30.19256 | -97.67883 | 529 ft | 79 kts | 359° |
| 2026-05-06 22:29 | 30.19640 | -97.67890 | 526 ft | 36 kts | 2° |
| 2026-05-06 22:30 | 30.19841 | -97.67833 | 526 ft | 22 kts | 34° |
| 2026-05-06 22:30 | 30.19886 | -97.67724 | 527 ft | 15 kts | 89° |
| 2026-05-06 22:30 | 30.19887 | -97.67613 | 527 ft | 13 kts | 89° |
| 2026-05-06 22:30 | 30.19889 | -97.67497 | 527 ft | 18 kts | 89° |
| 2026-05-06 22:31 | 30.19893 | -97.67331 | 527 ft | 21 kts | 88° |
| 2026-05-06 22:31 | 30.19897 | -97.67160 | 527 ft | 20 kts | 90° |
| 2026-05-06 22:31 | 30.19899 | -97.66991 | 527 ft | 22 kts | 88° |
| 2026-05-06 22:31 | 30.19904 | -97.66812 | 527 ft | 23 kts | 88° |
| 2026-05-06 22:32 | 30.19907 | -97.66623 | 527 ft | 24 kts | 89° |
| 2026-05-06 22:32 | 30.19909 | -97.66457 | 527 ft | 16 kts | 88° |
| 2026-05-06 22:32 | 30.19979 | -97.66391 | 527 ft | 15 kts | 1° |
| 2026-05-06 22:32 | 30.20033 | -97.66312 | 527 ft | 16 kts | 90° |
| 2026-05-06 22:33 | 30.20035 | -97.66186 | 527 ft | 15 kts | 89° |
| 2026-05-06 22:33 | 30.20098 | -97.66118 | 527 ft | 15 kts | 1° |
| 2026-05-06 22:33 | 30.20205 | -97.66121 | 527 ft | 16 kts | 359° |
| 2026-05-06 22:33 | 30.20315 | -97.66124 | 527 ft | 14 kts | 349° |
| 2026-05-06 22:34 | 30.20346 | -97.66218 | 527 ft | 13 kts | 255° |
| 2026-05-06 22:34 | 30.20302 | -97.66276 | 527 ft | 6 kts | 222° |
| 2026-05-06 22:34 | 30.20290 | -97.66289 | 527 ft | 1 kts | 223° |
| 2026-05-06 22:34 | 30.20288 | -97.66290 | 527 ft | 0 kts | 223° |